BWU weather

Sydney Bankstown Airport
Sydney, New South Wales, Australia

Public forecast

Using degrees Celsius for public forecast. Weather courtesy of forecast.io.

METAR (pilot weather report)

Closest report is Sydney Kingsford Smith International Airport, 9.5 nm (17.6 km) E. Retrieved 2019/04/23 02:30 UTC (0 seconds ago):

YSSY 230230Z 17012KT 9999 FEW010 22/19 Q1025 NOSIG

TAF (pilot weather forecast)

Forecast is more than 6 hours old.

Closest forecast is Sydney Kingsford Smith International Airport, 9.5 nm (17.6 km) E. Retrieved 2019/04/22 18:00 UTC (8 hours ago):

TAF YSSY 221650Z 2218/2324 20008KT 9999 -SHRA SCT025 FM230000 15008KT 9999 -SHRA SCT025 FM230800 07008KT 9999 SCT025 FM231600 29008KT 9999 SCT030